PAGYPAYA

Guest
Details From PAGY - SKAGWAY
To PAYA - YAKUTAT
Flight Number -
Tags decoded
Created
Modified
Stats Distance 151 nm / 279 km
Max Altitude 0 ft / 0 m
Waypoints 4
Social Downloads 0
Likes 0
Share VATSIM

Download

Looking for another format? Having issues loading an existing format? Contact us
Advertisement - Login to hide

Notes

Requested: PAGY HNS HOLIE PAYA

Route

PAGY HNS HOLIE PAYA

ID Type Via Altitude Latitude Longitude Leg Dist Tot Dist Heading (true) Name
O PAGY APT - 0 ft / 0 m 59.46006˚ -135.31566˚ - 0 nm - SKAGWAY
HNS NDB - 0 ft / 0 m 59.21208˚ -135.43086˚ 15 nm 15 nm 193° / 193° HAINES NDB
HOLIE FIX - 0 ft / 0 m 59.29691˚ -139.28581˚ 118 nm 133 nm 274° / 271° -
O PAYA APT - 0 ft / 0 m 59.50325˚ -139.66125˚ 16 nm 150 nm 317° / 317° YAKUTAT

Altitude Profile

Advertisement - Login to hide

PAGY

Details ICAO PAGY (SGY)
Name SKAGWAY
Region USA (Alaska)
Timezone America/Juneau (UTC-8.0)
Stats Elevation 44 ft / 13 m (AMSL)
Location 59.460062° -135.315661°
Runways 1
Magnetic Variation 19.214° E

METAR

PAGY 210453Z AUTO 33004KT 10SM -RA OVC060 10/07 A2978 RMK AO2 RAB18 SLP083 P0001 T01000072 TSNO $

Decode

TAF

PAGY 202336Z 2100/2124 21008KT P6SM OVC050 TEMPO 2100/2104 21018G28KT FM210400 21018G28KT P6SM -RA OVC050 FM211000 20007KT P6SM -RA OVC040 AMD LTD TO CLD VIS AND WIND

Decode

Departure Runways

ID Width Length Bearing (true) Bearing (mag) Surface Threshold Offset Overrun Length
02 75 ft / 23 m 3,542 ft / 1,080 m 43.94° 24.73° Asphalt 0 ft / 0 m 299 ft / 91 m
20 75 ft / 23 m 3,542 ft / 1,080 m 223.95° 204.74° Asphalt 0 ft / 0 m 299 ft / 91 m

PAYA

Details ICAO PAYA (YAK)
Name YAKUTAT
Region USA (Alaska)
Timezone America/Yakutat (UTC-8.0)
Stats Elevation 33 ft / 10 m (AMSL)
Location 59.503248° -139.661250°
Runways 2
Magnetic Variation 18.570° E

METAR

PAYA 210525Z AUTO 13011KT 10SM -RA SCT009 BKN030 OVC049 09/07 A2968

Decode

TAF

TAF PAYA 210236Z 2103/2124 10010KT 3SM -RA BR BKN010 OVC020 WS020/13035KT TEMPO 2103/2107 11010G20KT 1 1/2SM -RA BR BKN008 BKN010 FM210800 12011KT 6SM -RA BR OVC018 FM211200 11012KT 4SM RA BR OVC025 WS020/13040KT AMD LTD TO CLD VIS AND WIND

Decode

Destination Runways

ID Width Length Bearing (true) Bearing (mag) Surface Threshold Offset Overrun Length
02 150 ft / 46 m 6,460 ft / 1,969 m 44.92° 26.35° Concrete 1,388 ft / 423 m 0 ft / 0 m
11 150 ft / 46 m 7,727 ft / 2,355 m 135.05° 116.48° Asphalt 0 ft / 0 m 0 ft / 0 m
20 150 ft / 46 m 6,460 ft / 1,969 m 224.95° 206.38° Concrete 0 ft / 0 m 0 ft / 0 m
29 150 ft / 46 m 7,727 ft / 2,355 m 315.08° 296.51° Asphalt 0 ft / 0 m 0 ft / 0 m

Approach Navaids

Runway Type Ident Frequency Range Bearing (true) Bearing (mag) Slope Elevation
11 Localiser IYAK 111.10 MHz 18 nm / 33 km 135.08° 116.51° - 24 ft / 7 m (AMSL)
11 Glidescope IYAK 111.10 MHz 10 nm / 19 km 135.06° 116.49° 3.00° 31 ft / 9 m (AMSL)

Popular Alternatives